createdAt,value
2023-12-12T00:01:25.703Z,84.02
2023-12-12T00:03:54.767Z,84.10
2023-12-12T00:06:23.648Z,83.97
2023-12-12T00:08:52.909Z,83.93
2023-12-12T00:11:21.960Z,84.04
2023-12-12T00:13:50.631Z,83.93
2023-12-12T00:16:19.796Z,84.02
2023-12-12T00:18:49.132Z,84.06
2023-12-12T00:21:19.305Z,84.08
2023-12-12T00:23:48.154Z,83.95
2023-12-12T00:26:16.920Z,84.05
2023-12-12T00:28:45.518Z,84.07
2023-12-12T00:31:14.296Z,84.07
2023-12-12T00:33:43.143Z,83.99
2023-12-12T00:36:11.802Z,84.05
2023-12-12T00:38:50.557Z,83.85
2023-12-12T00:41:19.277Z,83.77
2023-12-12T00:43:47.984Z,83.91
2023-12-12T00:46:17.453Z,83.92
2023-12-12T00:48:46.489Z,83.94
2023-12-12T00:51:15.134Z,83.94
2023-12-12T00:53:44.175Z,83.77
2023-12-12T00:56:13.238Z,83.92
2023-12-12T00:58:41.857Z,83.81
2023-12-12T01:01:13.303Z,83.77
2023-12-12T01:03:42.453Z,83.70
2023-12-12T01:06:27.059Z,83.71
2023-12-12T01:08:58.391Z,83.56
2023-12-12T01:11:27.758Z,83.61
2023-12-12T01:13:56.406Z,83.74
2023-12-12T01:16:27.467Z,83.78
2023-12-12T01:18:58.052Z,83.64
2023-12-12T01:21:27.224Z,83.70
2023-12-12T01:23:56.688Z,83.64
2023-12-12T01:26:26.961Z,83.49
2023-12-12T01:28:55.835Z,83.41
2023-12-12T01:31:24.459Z,83.45
2023-12-12T01:33:54.140Z,83.41
2023-12-12T01:36:23.397Z,83.53
2023-12-12T01:38:51.961Z,83.42
2023-12-12T01:41:20.979Z,83.41
2023-12-12T01:43:50.059Z,83.38
2023-12-12T01:46:21.079Z,83.41
2023-12-12T01:48:50.757Z,83.52
2023-12-12T01:51:19.842Z,83.34
2023-12-12T01:53:52.889Z,83.27
2023-12-12T01:56:22.009Z,83.31
2023-12-12T01:58:53.828Z,83.34
2023-12-12T02:01:23.232Z,83.33
2023-12-12T02:03:54.332Z,83.35
2023-12-12T02:06:27.162Z,83.25
2023-12-12T02:08:56.236Z,83.19
2023-12-12T02:11:24.911Z,83.28
2023-12-12T02:13:54.359Z,83.22
2023-12-12T02:16:23.237Z,83.44
2023-12-12T02:18:52.019Z,83.28
2023-12-12T02:21:21.983Z,83.07
2023-12-12T02:23:51.042Z,83.16
2023-12-12T02:26:19.798Z,83.18
2023-12-12T02:28:48.717Z,83.11
2023-12-12T02:31:18.103Z,83.12
2023-12-12T02:33:46.993Z,83.00
2023-12-12T02:36:16.983Z,82.98
2023-12-12T02:38:45.563Z,82.90
2023-12-12T02:41:15.884Z,83.03
2023-12-12T02:43:45.391Z,83.03
2023-12-12T02:46:14.153Z,83.06
2023-12-12T02:48:42.855Z,83.02
2023-12-12T02:51:11.704Z,83.02
2023-12-12T02:53:40.679Z,82.93
2023-12-12T02:56:09.493Z,83.03
2023-12-12T02:58:38.688Z,82.94
2023-12-12T03:01:11.011Z,82.98
2023-12-12T03:03:41.213Z,82.93
2023-12-12T03:06:10.090Z,82.78
2023-12-12T03:08:38.688Z,82.65
2023-12-12T03:11:07.608Z,82.88
2023-12-12T03:13:36.449Z,82.82
2023-12-12T03:16:05.398Z,82.84
2023-12-12T03:18:34.325Z,82.85
2023-12-12T03:21:03.203Z,82.79
2023-12-12T03:23:31.826Z,82.83
2023-12-12T03:26:09.903Z,83.00
2023-12-12T03:28:39.506Z,82.85
2023-12-12T03:31:08.362Z,82.96
2023-12-12T03:33:37.294Z,83.03
2023-12-12T03:36:09.849Z,82.91
2023-12-12T03:38:38.788Z,82.94
2023-12-12T03:41:07.645Z,83.00
2023-12-12T03:43:36.312Z,82.92
2023-12-12T03:46:05.565Z,82.70
2023-12-12T03:48:34.746Z,82.70
2023-12-12T03:51:03.497Z,82.66
2023-12-12T03:53:32.240Z,82.70
2023-12-12T03:56:01.589Z,82.85
2023-12-12T03:58:30.566Z,82.80
2023-12-12T04:00:59.397Z,82.76
2023-12-12T04:03:28.722Z,82.76
2023-12-12T04:05:57.489Z,82.83
2023-12-12T04:08:26.479Z,82.71
2023-12-12T04:10:55.628Z,82.79
2023-12-12T04:13:24.446Z,82.70
2023-12-12T04:15:53.836Z,82.62
2023-12-12T04:18:23.916Z,82.68
2023-12-12T04:20:52.539Z,82.69
2023-12-12T04:23:21.234Z,82.72
2023-12-12T04:25:50.471Z,82.83
2023-12-12T04:28:19.158Z,82.73
2023-12-12T04:30:47.990Z,82.62
2023-12-12T04:33:17.490Z,82.76
2023-12-12T04:35:46.537Z,82.58
2023-12-12T04:38:15.935Z,82.58
2023-12-12T04:40:44.889Z,82.79
2023-12-12T04:43:13.915Z,82.90
2023-12-12T04:45:42.911Z,82.83
2023-12-12T04:48:12.015Z,83.07
2023-12-12T04:50:41.030Z,82.96
2023-12-12T04:53:09.918Z,82.95
2023-12-12T04:55:38.701Z,82.95
2023-12-12T04:58:07.520Z,82.86
2023-12-12T05:00:36.423Z,82.83
2023-12-12T05:03:05.528Z,82.99
2023-12-12T05:05:34.930Z,82.81
2023-12-12T05:08:04.435Z,82.86
2023-12-12T05:10:33.398Z,82.94
2023-12-12T05:13:02.930Z,82.76
2023-12-12T05:15:31.681Z,82.93
2023-12-12T05:18:00.490Z,82.91
2023-12-12T05:20:29.561Z,82.98
2023-12-12T05:22:58.382Z,82.93
2023-12-12T05:25:27.226Z,82.87
2023-12-12T05:27:55.922Z,83.07
2023-12-12T05:30:24.911Z,83.18
2023-12-12T05:32:53.992Z,83.04
2023-12-12T05:35:23.998Z,83.06
2023-12-12T05:37:55.707Z,82.94
2023-12-12T05:40:24.635Z,82.92
2023-12-12T05:42:53.348Z,82.85
2023-12-12T05:45:22.379Z,82.74
2023-12-12T05:47:51.823Z,82.70
2023-12-12T05:50:20.520Z,82.83
2023-12-12T05:52:49.513Z,82.70
2023-12-12T05:55:20.121Z,82.61
2023-12-12T05:57:52.472Z,82.74
2023-12-12T06:00:21.661Z,82.92
2023-12-12T06:02:50.366Z,82.71
2023-12-12T06:05:19.433Z,82.54
2023-12-12T06:07:48.707Z,82.85
2023-12-12T06:10:17.502Z,82.56
2023-12-12T06:12:47.089Z,82.80
2023-12-12T06:15:16.230Z,82.82
2023-12-12T06:17:44.897Z,82.80
2023-12-12T06:20:15.018Z,82.71
2023-12-12T06:22:44.499Z,82.77
2023-12-12T06:25:13.399Z,82.84
2023-12-12T06:27:42.323Z,82.69
2023-12-12T06:30:11.815Z,82.80
2023-12-12T06:32:40.688Z,82.85
2023-12-12T06:35:09.848Z,82.81
2023-12-12T06:37:38.950Z,82.95
2023-12-12T06:40:09.345Z,82.75
2023-12-12T06:42:41.227Z,82.82
2023-12-12T06:45:13.080Z,82.76
2023-12-12T06:47:42.249Z,82.70
2023-12-12T06:50:12.102Z,82.75
2023-12-12T06:52:42.346Z,82.69
2023-12-12T06:55:11.726Z,82.69
2023-12-12T06:57:40.357Z,82.76
2023-12-12T07:00:10.524Z,82.83
2023-12-12T07:02:39.734Z,82.94
2023-12-12T07:05:08.654Z,82.54
2023-12-12T07:07:37.380Z,82.93
2023-12-12T07:10:08.405Z,82.97
2023-12-12T07:15:24.952Z,82.99
2023-12-12T07:17:55.186Z,83.08
2023-12-12T07:20:23.816Z,83.02
2023-12-12T07:22:53.074Z,83.08
2023-12-12T07:25:22.040Z,82.85
2023-12-12T07:27:51.986Z,82.78
2023-12-12T07:30:21.966Z,82.82
2023-12-12T07:32:50.824Z,82.88
2023-12-12T07:35:19.463Z,83.09
2023-12-12T07:37:49.318Z,82.94
2023-12-12T07:40:19.399Z,82.88
2023-12-12T07:42:48.044Z,82.77
2023-12-12T07:45:17.654Z,82.95
2023-12-12T07:47:46.821Z,82.86
2023-12-12T07:50:18.040Z,82.89
2023-12-12T07:52:49.212Z,82.98
2023-12-12T07:55:18.194Z,82.93
2023-12-12T07:57:46.949Z,83.02
2023-12-12T08:00:16.793Z,82.96
2023-12-12T08:02:45.553Z,83.08
2023-12-12T08:05:14.277Z,82.99
2023-12-12T08:07:43.762Z,82.97
2023-12-12T08:10:12.499Z,82.75
2023-12-12T08:12:41.127Z,82.75
2023-12-12T08:15:10.644Z,82.81
2023-12-12T08:17:40.495Z,82.82
2023-12-12T08:20:09.742Z,82.84
2023-12-12T08:22:39.431Z,82.87
2023-12-12T08:25:09.312Z,82.75
2023-12-12T08:27:38.635Z,82.84
2023-12-12T08:30:09.129Z,82.99
2023-12-12T08:32:39.413Z,83.11
2023-12-12T08:35:09.240Z,83.37
2023-12-12T08:37:40.048Z,83.31
2023-12-12T08:40:11.501Z,82.81
2023-12-12T08:42:41.360Z,82.81
2023-12-12T08:45:10.858Z,82.65
2023-12-12T08:47:39.944Z,82.21
2023-12-12T08:50:10.998Z,82.09
2023-12-12T08:52:40.224Z,82.08
2023-12-12T08:55:12.782Z,82.30
2023-12-12T08:57:42.145Z,82.28
2023-12-12T09:00:14.837Z,82.29
2023-12-12T09:02:43.882Z,82.14
2023-12-12T09:05:12.540Z,82.16
2023-12-12T09:07:43.039Z,82.12
2023-12-12T09:10:12.144Z,82.22
2023-12-12T09:12:40.986Z,82.38
2023-12-12T09:15:10.045Z,82.58
2023-12-12T09:17:39.664Z,82.70
2023-12-12T09:20:09.310Z,82.43
2023-12-12T09:22:38.343Z,82.59
2023-12-12T09:25:07.357Z,82.57
2023-12-12T09:27:36.366Z,82.52
2023-12-12T09:30:05.896Z,82.58
2023-12-12T09:32:35.234Z,82.45
2023-12-12T09:35:05.512Z,82.17
2023-12-12T09:37:34.373Z,82.23
2023-12-12T09:40:06.814Z,82.10
2023-12-12T09:42:37.712Z,82.14
2023-12-12T09:45:15.191Z,81.96
2023-12-12T09:47:46.664Z,82.06
2023-12-12T09:50:15.748Z,81.70
2023-12-12T09:52:50.980Z,81.82
2023-12-12T09:55:24.144Z,81.84
2023-12-12T09:57:53.812Z,81.51
2023-12-12T10:00:23.705Z,81.49
2023-12-12T10:02:56.981Z,81.42
2023-12-12T10:05:29.810Z,81.36
2023-12-12T10:08:05.114Z,81.28
2023-12-12T10:10:43.274Z,81.28
2023-12-12T10:13:12.730Z,81.29
2023-12-12T10:15:42.836Z,81.19
2023-12-12T10:18:12.259Z,81.18
2023-12-12T10:20:41.170Z,80.96
2023-12-12T10:23:10.389Z,81.24
2023-12-12T10:25:51.633Z,81.18
2023-12-12T10:28:23.975Z,80.94
2023-12-12T10:30:55.597Z,80.97
2023-12-12T10:33:29.050Z,80.88
2023-12-12T10:35:59.293Z,81.00
2023-12-12T10:38:29.896Z,80.64
2023-12-12T10:41:11.606Z,80.59
2023-12-12T10:43:42.503Z,80.53
2023-12-12T10:46:16.743Z,80.48
2023-12-12T10:48:46.780Z,80.37
2023-12-12T10:51:19.383Z,80.33
2023-12-12T10:53:52.907Z,80.39
2023-12-12T10:56:21.876Z,80.26
2023-12-12T10:58:50.883Z,80.22
2023-12-12T11:01:19.691Z,80.53
2023-12-12T11:03:50.412Z,80.51
2023-12-12T11:06:20.596Z,80.34
2023-12-12T11:08:49.156Z,80.33
2023-12-12T11:11:23.873Z,80.31
2023-12-12T11:13:54.768Z,80.13
2023-12-12T11:16:23.617Z,79.91
2023-12-12T11:18:52.896Z,79.85
2023-12-12T11:21:47.929Z,79.63
2023-12-12T11:24:21.961Z,79.71
2023-12-12T11:26:54.709Z,79.76
2023-12-12T11:29:25.880Z,79.93
2023-12-12T11:32:00.599Z,79.71
2023-12-12T11:34:39.849Z,79.80
2023-12-12T11:37:10.620Z,79.72
2023-12-12T11:39:51.055Z,79.71
2023-12-12T11:42:22.945Z,79.76
2023-12-12T11:44:56.289Z,79.64
2023-12-12T11:47:31.099Z,79.58
2023-12-12T11:50:16.948Z,79.64
2023-12-12T11:52:47.077Z,79.55
2023-12-12T11:55:20.308Z,79.46
2023-12-12T11:57:49.314Z,79.41
2023-12-12T12:00:20.714Z,79.48
2023-12-12T12:02:50.131Z,79.47
2023-12-12T12:05:19.424Z,79.28
2023-12-12T12:07:49.144Z,79.19
2023-12-12T12:10:18.285Z,79.13
2023-12-12T12:12:53.996Z,79.37
2023-12-12T12:15:24.192Z,79.31
2023-12-12T12:17:53.215Z,79.09
2023-12-12T12:20:22.636Z,79.07
2023-12-12T12:22:52.072Z,79.01
2023-12-12T12:25:28.755Z,79.02
2023-12-12T12:27:58.094Z,78.99
2023-12-12T12:30:27.548Z,78.96
2023-12-12T12:33:02.938Z,78.78
2023-12-12T12:35:33.018Z,78.68
2023-12-12T12:38:02.016Z,78.71
2023-12-12T12:40:39.620Z,78.66
2023-12-12T12:43:16.306Z,78.84
2023-12-12T12:45:46.965Z,78.76
2023-12-12T12:48:20.283Z,78.64
2023-12-12T12:50:51.504Z,78.61
2023-12-12T12:53:27.885Z,78.81
2023-12-12T12:55:57.386Z,78.52
2023-12-12T12:58:26.349Z,78.60
2023-12-12T13:00:55.881Z,78.45
2023-12-12T13:03:25.033Z,78.40
2023-12-12T13:05:54.857Z,78.47
2023-12-12T13:08:23.443Z,78.35
2023-12-12T13:10:52.576Z,78.57
2023-12-12T13:13:22.231Z,78.66
2023-12-12T13:15:52.501Z,78.38
2023-12-12T13:18:21.456Z,78.24
2023-12-12T13:20:50.508Z,78.27
2023-12-12T13:23:19.256Z,78.27
2023-12-12T13:25:48.282Z,78.11
2023-12-12T13:28:17.286Z,78.06
2023-12-12T13:30:46.476Z,78.12
2023-12-12T13:33:15.502Z,78.04
2023-12-12T13:35:45.137Z,78.01
2023-12-12T13:38:20.355Z,77.78
2023-12-12T13:40:49.815Z,77.86
2023-12-12T13:43:20.473Z,77.99
2023-12-12T13:45:52.117Z,77.88
2023-12-12T13:48:21.799Z,77.84
2023-12-12T13:50:50.753Z,77.95
2023-12-12T13:53:21.812Z,77.82
2023-12-12T13:55:51.016Z,77.88
2023-12-12T13:58:21.661Z,77.87
2023-12-12T14:00:50.717Z,77.81
2023-12-12T14:03:20.519Z,77.61
2023-12-12T14:05:49.369Z,77.41
2023-12-12T14:08:18.316Z,77.30
2023-12-12T14:10:47.300Z,77.34
2023-12-12T14:13:16.067Z,77.20
2023-12-12T14:15:47.321Z,77.16
2023-12-12T14:18:16.712Z,77.21
2023-12-12T14:20:45.385Z,77.18
2023-12-12T14:23:14.563Z,77.24
2023-12-12T14:25:43.662Z,77.22
2023-12-12T14:28:13.119Z,77.24
2023-12-12T14:30:42.329Z,77.29
2023-12-12T14:33:11.758Z,77.12
2023-12-12T14:35:40.385Z,76.96
2023-12-12T14:38:09.433Z,76.97
2023-12-12T14:40:38.643Z,76.99
2023-12-12T14:43:07.387Z,76.92
2023-12-12T14:45:36.611Z,76.95
2023-12-12T14:48:06.499Z,76.98
2023-12-12T14:50:38.648Z,76.88
2023-12-12T14:53:08.049Z,76.81
2023-12-12T14:55:37.293Z,76.78
2023-12-12T14:58:06.657Z,76.92
2023-12-12T15:00:35.649Z,76.75
2023-12-12T15:03:05.329Z,76.70
2023-12-12T15:05:34.124Z,76.78
2023-12-12T15:08:03.968Z,76.79
2023-12-12T15:10:33.165Z,76.87
2023-12-12T15:13:02.064Z,76.88
2023-12-12T15:15:32.058Z,76.69
2023-12-12T15:18:01.028Z,76.54
2023-12-12T15:20:35.988Z,76.44
2023-12-12T15:23:05.847Z,76.38
2023-12-12T15:25:41.571Z,76.51
2023-12-12T15:28:24.855Z,76.51
2023-12-12T15:30:57.930Z,76.44
2023-12-12T15:33:27.865Z,76.25
2023-12-12T15:35:57.575Z,76.33
2023-12-12T15:38:27.412Z,76.27
2023-12-12T15:40:56.665Z,76.33
2023-12-12T15:43:25.678Z,76.37
2023-12-12T15:45:55.493Z,76.36
2023-12-12T15:48:24.983Z,76.39
2023-12-12T15:50:53.927Z,76.37
2023-12-12T15:53:23.411Z,76.51
2023-12-12T15:55:52.655Z,76.40
2023-12-12T15:58:21.604Z,76.30
2023-12-12T16:00:50.895Z,76.35
2023-12-12T16:03:21.253Z,76.32
2023-12-12T16:05:50.422Z,76.36
2023-12-12T16:08:19.401Z,76.24
2023-12-12T16:10:48.173Z,76.17
2023-12-12T16:13:17.110Z,76.01
2023-12-12T16:15:46.365Z,76.26
2023-12-12T16:18:15.244Z,76.30
2023-12-12T16:20:44.552Z,76.27
2023-12-12T16:23:13.280Z,76.34
2023-12-12T16:25:42.760Z,76.20
2023-12-12T16:28:12.343Z,76.00
2023-12-12T16:30:41.487Z,76.10
2023-12-12T16:33:12.490Z,76.13
2023-12-12T16:35:42.684Z,75.90
2023-12-12T16:38:19.001Z,75.83
2023-12-12T16:40:51.876Z,75.74
2023-12-12T16:43:20.769Z,75.89
2023-12-12T16:45:49.655Z,76.11
2023-12-12T16:48:18.707Z,76.22
2023-12-12T16:50:47.732Z,76.49
2023-12-12T16:53:16.460Z,76.28
2023-12-12T16:55:45.357Z,76.12
2023-12-12T16:58:14.338Z,76.18
2023-12-12T17:00:43.239Z,76.16
2023-12-12T17:03:12.217Z,76.25
2023-12-12T17:05:41.571Z,76.07
2023-12-12T17:08:10.819Z,76.03
2023-12-12T17:10:39.606Z,76.00
2023-12-12T17:13:09.178Z,75.94
2023-12-12T17:15:38.047Z,75.97
2023-12-12T17:18:07.323Z,75.94
2023-12-12T17:20:36.345Z,76.02
2023-12-12T17:23:05.729Z,76.10
2023-12-12T17:25:34.457Z,76.03
2023-12-12T17:28:03.794Z,76.06
2023-12-12T17:30:33.946Z,75.89
2023-12-12T17:33:05.562Z,75.83
2023-12-12T17:35:36.947Z,75.83
2023-12-12T17:38:05.869Z,75.97
2023-12-12T17:40:34.906Z,75.85
2023-12-12T17:43:04.792Z,75.79
2023-12-12T17:45:33.887Z,75.84
2023-12-12T17:48:02.936Z,75.81
2023-12-12T17:50:32.723Z,75.80
2023-12-12T17:53:05.734Z,75.98
2023-12-12T17:55:34.829Z,75.90
2023-12-12T17:58:03.898Z,75.82
2023-12-12T18:00:32.831Z,75.74
2023-12-12T18:03:05.712Z,75.93
2023-12-12T18:05:53.484Z,75.88
2023-12-12T18:08:32.629Z,75.84
2023-12-12T18:11:26.588Z,75.83
2023-12-12T18:14:08.992Z,76.05
2023-12-12T18:16:53.507Z,76.09
2023-12-12T18:19:44.394Z,76.13
2023-12-12T18:22:32.499Z,76.02
2023-12-12T18:25:21.930Z,76.07
2023-12-12T18:28:05.774Z,76.19
2023-12-12T18:30:51.082Z,76.12
2023-12-12T18:33:27.499Z,76.08
2023-12-12T18:36:07.785Z,76.01
2023-12-12T18:38:50.551Z,76.08
2023-12-12T18:41:33.374Z,76.17
2023-12-12T18:44:05.025Z,75.98
2023-12-12T18:46:34.416Z,75.86
2023-12-12T18:49:05.215Z,76.00
2023-12-12T18:51:34.630Z,75.95
2023-12-12T18:54:06.787Z,76.10
2023-12-12T18:56:36.208Z,76.14
2023-12-12T18:59:06.100Z,76.00
2023-12-12T19:01:34.932Z,76.22
2023-12-12T19:04:04.598Z,76.01
2023-12-12T19:06:34.714Z,75.89
2023-12-12T19:09:03.453Z,75.90
2023-12-12T19:11:38.794Z,76.11
2023-12-12T19:14:07.677Z,76.13
2023-12-12T19:16:36.842Z,76.01
2023-12-12T19:19:06.057Z,76.09
2023-12-12T19:21:39.173Z,75.99
2023-12-12T19:24:09.059Z,75.94
2023-12-12T19:26:38.334Z,76.03
2023-12-12T19:29:07.732Z,76.04
2023-12-12T19:31:37.201Z,75.93
2023-12-12T19:34:06.339Z,75.82
2023-12-12T19:36:35.654Z,75.90
2023-12-12T19:39:05.611Z,76.12
2023-12-12T19:41:39.370Z,76.29
2023-12-12T19:44:08.776Z,76.17
2023-12-12T19:46:37.486Z,76.12
2023-12-12T19:49:06.317Z,76.32
2023-12-12T19:51:36.543Z,76.33
2023-12-12T19:54:05.166Z,76.47
2023-12-12T19:56:35.042Z,76.09
2023-12-12T19:59:04.543Z,76.22
2023-12-12T20:01:34.927Z,76.12
2023-12-12T20:04:04.527Z,76.14
2023-12-12T20:06:38.563Z,76.29
2023-12-12T20:09:08.474Z,76.40
2023-12-12T20:11:43.980Z,76.37
2023-12-12T20:14:13.127Z,76.41
2023-12-12T20:16:42.345Z,76.50
2023-12-12T20:19:11.176Z,76.10
2023-12-12T20:21:39.962Z,75.91
2023-12-12T20:24:08.842Z,75.89
2023-12-12T20:26:43.694Z,75.85
2023-12-12T20:29:15.362Z,75.77
2023-12-12T20:31:44.876Z,75.73
2023-12-12T20:34:14.225Z,75.76
2023-12-12T20:36:43.838Z,75.84
2023-12-12T20:39:13.963Z,75.94
2023-12-12T20:41:45.464Z,76.31
2023-12-12T20:44:14.156Z,76.52
2023-12-12T20:46:43.080Z,76.66
2023-12-12T20:49:13.299Z,76.81
2023-12-12T20:51:43.371Z,76.87
2023-12-12T20:54:13.021Z,77.15
2023-12-12T20:56:43.224Z,77.05
2023-12-12T20:59:12.204Z,77.14
2023-12-12T21:01:47.534Z,77.12
2023-12-12T21:04:17.168Z,77.26
2023-12-12T21:06:45.931Z,77.22
2023-12-12T21:09:15.048Z,77.26
2023-12-12T21:11:44.818Z,77.28
2023-12-12T21:14:13.794Z,77.05
2023-12-12T21:16:42.897Z,77.05
2023-12-12T21:19:13.796Z,76.97
2023-12-12T21:21:44.743Z,77.40
2023-12-12T21:24:13.555Z,77.32
2023-12-12T21:26:42.280Z,77.40
2023-12-12T21:29:11.616Z,77.33
2023-12-12T21:31:40.918Z,77.34
2023-12-12T21:34:14.510Z,77.56
2023-12-12T21:36:45.219Z,77.63
2023-12-12T21:39:13.882Z,77.42
2023-12-12T21:41:42.873Z,77.64
2023-12-12T21:44:11.996Z,77.43
2023-12-12T21:46:41.771Z,77.35
2023-12-12T21:49:10.822Z,77.23
2023-12-12T21:51:41.516Z,77.21
2023-12-12T21:54:10.904Z,77.24
2023-12-12T21:56:39.989Z,77.33
2023-12-12T21:59:09.036Z,77.45
2023-12-12T22:01:38.849Z,77.73
2023-12-12T22:04:08.206Z,77.73
2023-12-12T22:06:40.376Z,77.79
2023-12-12T22:09:09.178Z,77.72
2023-12-12T22:11:38.409Z,77.59
2023-12-12T22:14:07.363Z,77.46
2023-12-12T22:16:36.556Z,77.57
2023-12-12T22:19:05.621Z,77.50
2023-12-12T22:21:39.235Z,77.75
2023-12-12T22:24:08.481Z,77.85
2023-12-12T22:26:37.198Z,77.98
2023-12-12T22:29:06.413Z,77.68
2023-12-12T22:31:40.560Z,77.72
2023-12-12T22:34:10.046Z,77.82
2023-12-12T22:36:39.110Z,77.76
2023-12-12T22:39:15.735Z,77.74
2023-12-12T22:41:48.739Z,77.74
2023-12-12T22:44:17.477Z,77.78
2023-12-12T22:46:46.124Z,77.96
2023-12-12T22:49:15.751Z,77.79
2023-12-12T22:51:44.513Z,78.01
2023-12-12T22:54:13.187Z,78.10
2023-12-12T22:56:42.861Z,78.06
2023-12-12T22:59:11.504Z,78.10
2023-12-12T23:01:46.528Z,78.02
2023-12-12T23:04:15.469Z,78.14
2023-12-12T23:06:45.617Z,78.38
2023-12-12T23:09:14.574Z,78.18
2023-12-12T23:11:43.565Z,78.36
2023-12-12T23:14:13.572Z,78.09
2023-12-12T23:16:42.336Z,78.29
2023-12-12T23:19:11.837Z,78.25
2023-12-12T23:21:40.977Z,77.98
2023-12-12T23:24:09.878Z,77.87
2023-12-12T23:26:41.773Z,77.98
2023-12-12T23:29:10.441Z,78.49
2023-12-12T23:31:42.795Z,78.59
2023-12-12T23:34:11.609Z,78.37
2023-12-12T23:36:43.117Z,78.49
2023-12-12T23:39:12.416Z,78.36
2023-12-12T23:41:46.615Z,78.25
2023-12-12T23:44:21.098Z,78.24
2023-12-12T23:46:51.473Z,78.25
2023-12-12T23:49:20.426Z,78.19
2023-12-12T23:51:49.858Z,78.24
2023-12-12T23:54:18.621Z,78.36
2023-12-12T23:56:48.109Z,78.39
2023-12-12T23:59:16.871Z,78.38
